createdAt,value
2019-05-20T00:01:51.031Z,9.30
2019-05-20T00:04:21.317Z,7.00
2019-05-20T00:06:51.133Z,7.73
2019-05-20T00:09:21.416Z,8.17
2019-05-20T00:11:53.705Z,7.13
2019-05-20T00:14:23.075Z,7.60
2019-05-20T00:16:52.887Z,8.20
2019-05-20T00:19:22.807Z,7.10
2019-05-20T00:21:52.639Z,7.20
2019-05-20T00:24:22.738Z,7.30
2019-05-20T00:26:52.605Z,7.53
2019-05-20T00:29:22.782Z,7.00
2019-05-20T00:31:52.546Z,6.40
2019-05-20T00:34:34.684Z,6.90
2019-05-20T00:36:53.847Z,7.03
2019-05-20T00:39:24.515Z,6.73
2019-05-20T00:41:54.708Z,6.80
2019-05-20T00:44:24.950Z,6.10
2019-05-20T00:46:54.733Z,6.43
2019-05-20T00:49:24.530Z,6.60
2019-05-20T00:51:54.359Z,7.00
2019-05-20T00:54:24.702Z,6.70
2019-05-20T00:56:54.540Z,6.83
2019-05-20T00:59:24.667Z,6.20
2019-05-20T01:01:54.945Z,6.50
2019-05-20T01:04:24.894Z,6.13
2019-05-20T01:06:55.362Z,5.90
2019-05-20T01:09:25.148Z,6.20
2019-05-20T01:11:55.023Z,7.20
2019-05-20T01:14:24.824Z,6.47
2019-05-20T01:16:55.015Z,6.93
2019-05-20T01:19:25.133Z,6.10
2019-05-20T01:21:55.194Z,6.07
2019-05-20T01:24:24.962Z,6.37
2019-05-20T01:26:55.295Z,6.67
2019-05-20T01:29:25.505Z,6.83
2019-05-20T01:31:55.294Z,6.27
2019-05-20T01:34:25.072Z,6.70
2019-05-20T01:36:55.025Z,6.77
2019-05-20T01:39:24.827Z,7.43
2019-05-20T01:41:54.653Z,6.97
2019-05-20T01:44:24.466Z,5.83
2019-05-20T01:46:54.316Z,6.93
2019-05-20T01:49:24.839Z,7.10
2019-05-20T01:51:55.693Z,6.70
2019-05-20T01:54:25.501Z,7.30
2019-05-20T01:56:55.702Z,7.00
2019-05-20T01:59:25.579Z,6.77
2019-05-20T02:01:55.338Z,6.70
2019-05-20T02:04:25.134Z,7.43
2019-05-20T02:06:55.575Z,7.87
2019-05-20T02:09:25.627Z,6.67
2019-05-20T02:11:55.560Z,7.43
2019-05-20T02:14:27.683Z,6.30
2019-05-20T02:16:57.455Z,7.63
2019-05-20T02:19:27.910Z,7.33
2019-05-20T02:21:57.705Z,7.63
2019-05-20T02:24:27.550Z,7.60
2019-05-20T02:26:57.751Z,7.87
2019-05-20T02:29:27.611Z,9.07
2019-05-20T02:31:57.336Z,9.20
2019-05-20T02:34:27.356Z,8.77
2019-05-20T02:36:57.132Z,8.90
2019-05-20T02:39:27.114Z,9.80
2019-05-20T02:41:56.993Z,9.87
2019-05-20T02:44:27.275Z,9.83
2019-05-20T02:46:57.922Z,9.63
2019-05-20T02:49:27.645Z,9.93
2019-05-20T02:51:57.915Z,11.50
2019-05-20T02:54:27.643Z,10.67
2019-05-20T02:56:57.827Z,11.77
2019-05-20T02:59:28.042Z,12.20
2019-05-20T03:01:57.824Z,12.30
2019-05-20T03:04:27.992Z,12.80
2019-05-20T03:06:57.774Z,11.93
2019-05-20T03:09:27.871Z,13.90
2019-05-20T03:11:57.679Z,13.63
2019-05-20T03:14:27.488Z,15.13
2019-05-20T03:16:57.379Z,13.93
2019-05-20T03:19:27.159Z,13.53
2019-05-20T03:21:56.936Z,13.87
2019-05-20T03:24:27.073Z,15.23
2019-05-20T03:26:56.925Z,14.93
2019-05-20T03:29:27.022Z,16.23
2019-05-20T03:31:57.771Z,17.13
2019-05-20T03:34:45.539Z,16.00
2019-05-20T03:36:59.840Z,16.67
2019-05-20T03:39:29.795Z,16.87
2019-05-20T03:42:00.106Z,16.80
2019-05-20T03:44:30.111Z,17.43
2019-05-20T03:47:00.299Z,18.20
2019-05-20T03:49:30.534Z,19.17
2019-05-20T03:52:01.200Z,17.17
2019-05-20T03:54:31.396Z,18.77
2019-05-20T03:57:01.187Z,18.57
2019-05-20T03:59:30.907Z,18.60
2019-05-20T04:02:00.729Z,19.23
2019-05-20T04:04:31.886Z,18.60
2019-05-20T04:07:01.736Z,19.60
2019-05-20T04:09:31.531Z,18.17
2019-05-20T04:12:01.325Z,20.43
2019-05-20T04:14:31.111Z,21.43
2019-05-20T04:17:00.965Z,18.23
2019-05-20T04:19:31.465Z,19.13
2019-05-20T04:22:01.279Z,20.03
2019-05-20T04:24:31.077Z,24.30
2019-05-20T04:27:01.906Z,24.00
2019-05-20T04:29:31.773Z,21.00
2019-05-20T04:32:02.820Z,21.17
2019-05-20T04:34:33.529Z,21.43
2019-05-20T04:37:03.942Z,22.10
2019-05-20T04:39:34.159Z,21.93
2019-05-20T04:42:06.616Z,22.70
2019-05-20T04:44:36.018Z,23.10
2019-05-20T04:47:06.225Z,22.57
2019-05-20T04:49:36.259Z,23.13
2019-05-20T04:52:05.991Z,21.13
2019-05-20T04:54:36.418Z,20.50
2019-05-20T04:57:06.862Z,20.30
2019-05-20T04:59:36.727Z,20.27
2019-05-20T05:02:06.484Z,21.33
2019-05-20T05:04:36.710Z,22.10
2019-05-20T05:07:06.903Z,19.67
2019-05-20T05:09:37.038Z,18.50
2019-05-20T05:12:07.842Z,21.00
2019-05-20T05:14:37.648Z,20.00
2019-05-20T05:17:07.690Z,18.50
2019-05-20T05:19:37.656Z,16.87
2019-05-20T05:22:08.340Z,18.40
2019-05-20T05:24:38.102Z,18.47
2019-05-20T05:27:08.009Z,19.50
2019-05-20T05:29:37.754Z,19.47
2019-05-20T05:32:07.959Z,19.50
2019-05-20T05:34:37.921Z,21.03
2019-05-20T05:37:08.169Z,19.70
2019-05-20T05:39:38.204Z,18.80
2019-05-20T05:42:07.999Z,17.60
2019-05-20T05:44:38.101Z,18.20
2019-05-20T05:47:07.883Z,20.93
2019-05-20T05:49:37.645Z,20.47
2019-05-20T05:52:07.703Z,22.00
2019-05-20T05:54:37.491Z,21.50
2019-05-20T05:57:07.999Z,22.47
2019-05-20T05:59:38.475Z,23.87
2019-05-20T06:02:08.275Z,22.53
2019-05-20T06:04:38.562Z,25.20
2019-05-20T06:07:08.326Z,25.33
2019-05-20T06:09:38.070Z,23.57
2019-05-20T06:12:08.262Z,25.60
2019-05-20T06:14:38.991Z,24.93
2019-05-20T06:17:09.195Z,23.50
2019-05-20T06:19:39.467Z,25.20
2019-05-20T06:22:09.352Z,26.20
2019-05-20T06:24:39.497Z,23.80
2019-05-20T06:27:09.350Z,24.30
2019-05-20T06:29:39.903Z,24.70
2019-05-20T06:32:09.727Z,24.83
2019-05-20T06:34:42.444Z,27.17
2019-05-20T06:37:13.383Z,26.20
2019-05-20T06:39:43.145Z,28.87
2019-05-20T06:42:13.537Z,25.37
2019-05-20T06:44:52.129Z,25.70
2019-05-20T06:47:14.888Z,28.10
2019-05-20T06:49:44.960Z,26.93
2019-05-20T06:52:14.795Z,28.10
2019-05-20T06:54:44.578Z,26.40
2019-05-20T06:57:14.452Z,26.73
2019-05-20T06:59:44.907Z,25.53
2019-05-20T07:02:14.979Z,29.43
2019-05-20T07:04:45.168Z,28.40
2019-05-20T07:07:20.985Z,27.33
2019-05-20T07:09:47.608Z,27.03
2019-05-20T07:12:17.392Z,26.67
2019-05-20T07:14:47.639Z,24.53
2019-05-20T07:17:17.711Z,27.13
2019-05-20T07:19:47.863Z,28.37
2019-05-20T07:22:18.368Z,28.43
2019-05-20T07:24:48.562Z,29.73
2019-05-20T07:27:18.618Z,28.13
2019-05-20T07:29:49.451Z,29.43
2019-05-20T07:32:19.248Z,27.57
2019-05-20T07:34:49.391Z,28.90
2019-05-20T07:37:19.356Z,28.60
2019-05-20T07:39:50.206Z,27.53
2019-05-20T07:42:20.758Z,30.97
2019-05-20T07:44:50.598Z,28.77
2019-05-20T07:47:21.081Z,30.47
2019-05-20T07:49:51.387Z,26.37
2019-05-20T07:52:22.630Z,28.37
2019-05-20T07:54:53.870Z,25.93
2019-05-20T07:57:27.227Z,28.73
2019-05-20T07:59:57.664Z,26.47
2019-05-20T08:02:28.131Z,25.13
2019-05-20T08:04:57.941Z,26.10
2019-05-20T08:07:48.380Z,28.27
2019-05-20T08:09:59.122Z,25.67
2019-05-20T08:12:29.640Z,25.37
2019-05-20T08:14:59.406Z,26.63
2019-05-20T08:17:29.510Z,23.50
2019-05-20T08:20:00.044Z,27.30
2019-05-20T08:22:29.786Z,25.20
2019-05-20T08:24:59.850Z,26.10
2019-05-20T08:27:30.422Z,25.40
2019-05-20T08:30:00.229Z,24.53
2019-05-20T08:32:30.440Z,24.23
2019-05-20T08:35:00.696Z,24.57
2019-05-20T08:37:44.730Z,23.53
2019-05-20T08:40:03.300Z,24.63
2019-05-20T08:42:33.517Z,24.40
2019-05-20T08:45:03.852Z,24.63
2019-05-20T08:47:34.470Z,24.67
2019-05-20T08:50:08.269Z,24.80
2019-05-20T08:52:37.332Z,24.37
2019-05-20T08:55:07.752Z,21.60
2019-05-20T08:57:37.516Z,22.30
2019-05-20T09:00:09.184Z,24.20
2019-05-20T09:02:38.996Z,23.07
2019-05-20T09:05:10.021Z,21.47
2019-05-20T09:07:40.231Z,22.90
2019-05-20T09:10:10.490Z,24.10
2019-05-20T09:12:40.293Z,22.60
2019-05-20T09:15:11.427Z,21.70
2019-05-20T09:17:41.402Z,21.87
2019-05-20T09:20:12.184Z,21.40
2019-05-20T09:23:37.913Z,22.60
2019-05-20T09:26:07.880Z,18.73
2019-05-20T09:28:37.750Z,20.00
2019-05-20T09:31:08.278Z,21.93
2019-05-20T09:33:39.034Z,20.77
2019-05-20T09:36:08.910Z,23.03
2019-05-20T09:38:38.830Z,20.03
2019-05-20T09:41:09.717Z,20.40
2019-05-20T09:43:39.558Z,21.10
2019-05-20T09:46:09.875Z,22.27
2019-05-20T09:48:40.059Z,17.90
2019-05-20T09:51:10.568Z,20.90
2019-05-20T09:53:40.380Z,20.67
2019-05-20T09:56:10.646Z,20.43
2019-05-20T09:58:41.416Z,21.43
2019-05-20T10:01:11.284Z,21.73
2019-05-20T10:03:41.110Z,21.57
2019-05-20T10:06:11.365Z,21.90
2019-05-20T10:08:45.083Z,21.50
2019-05-20T10:11:13.419Z,20.53
2019-05-20T10:13:43.279Z,21.90
2019-05-20T10:16:13.091Z,20.40
2019-05-20T10:18:43.230Z,20.00
2019-05-20T10:21:13.090Z,19.00
2019-05-20T10:23:43.017Z,21.00
2019-05-20T10:26:13.159Z,19.57
2019-05-20T10:28:47.171Z,19.60
2019-05-20T10:31:14.918Z,19.50
2019-05-20T10:33:44.773Z,18.27
2019-05-20T10:36:14.616Z,18.77
2019-05-20T10:38:58.137Z,19.80
2019-05-20T10:41:16.286Z,19.63
2019-05-20T10:43:47.060Z,20.57
2019-05-20T10:46:16.870Z,19.00
2019-05-20T10:48:47.139Z,20.27
2019-05-20T10:51:17.363Z,19.77
2019-05-20T10:53:47.167Z,17.23
2019-05-20T10:56:16.975Z,19.50
2019-05-20T10:58:47.036Z,17.30
2019-05-20T11:01:16.924Z,22.10
2019-05-20T11:03:47.733Z,20.03
2019-05-20T11:06:17.832Z,18.73
2019-05-20T11:08:48.148Z,21.40
2019-05-20T11:11:17.857Z,19.20
2019-05-20T11:13:48.108Z,20.57
2019-05-20T11:16:17.852Z,20.13
2019-05-20T11:18:48.570Z,20.47
2019-05-20T11:21:18.358Z,19.73
2019-05-20T11:23:48.223Z,18.33
2019-05-20T11:26:18.489Z,21.30
2019-05-20T11:28:48.614Z,19.77
2019-05-20T11:31:18.770Z,19.83
2019-05-20T11:33:49.391Z,20.40
2019-05-20T11:36:19.150Z,20.77
2019-05-20T11:38:49.191Z,19.30
2019-05-20T11:41:19.082Z,20.23
2019-05-20T11:43:48.894Z,20.00
2019-05-20T11:46:19.877Z,20.37
2019-05-20T11:48:50.102Z,22.77
2019-05-20T11:51:19.904Z,23.03
2019-05-20T11:53:50.425Z,22.27
2019-05-20T11:56:20.249Z,23.07
2019-05-20T11:58:50.117Z,24.53
2019-05-20T12:01:20.353Z,26.13
2019-05-20T12:03:50.316Z,26.30
2019-05-20T12:06:20.122Z,26.57
2019-05-20T12:08:50.162Z,26.73
2019-05-20T12:11:20.005Z,29.00
2019-05-20T12:13:50.210Z,28.00
2019-05-20T12:16:20.346Z,27.50
2019-05-20T12:18:50.466Z,28.33
2019-05-20T12:21:20.605Z,27.73
2019-05-20T12:23:50.822Z,28.33
2019-05-20T12:26:22.603Z,26.47
2019-05-20T12:28:52.436Z,27.63
2019-05-20T12:31:22.924Z,28.23
2019-05-20T12:33:52.700Z,25.53
2019-05-20T12:36:22.919Z,26.13
2019-05-20T12:38:52.722Z,28.33
2019-05-20T12:41:24.463Z,29.20
2019-05-20T12:44:10.992Z,26.60
2019-05-20T12:46:26.057Z,28.70
2019-05-20T12:48:56.259Z,25.80
2019-05-20T12:51:26.934Z,25.30
2019-05-20T12:53:57.067Z,25.90
2019-05-20T12:56:27.237Z,22.90
2019-05-20T12:58:57.143Z,22.47
2019-05-20T13:01:27.352Z,19.87
2019-05-20T13:03:57.608Z,19.60
2019-05-20T13:06:27.460Z,18.23
2019-05-20T13:08:57.622Z,18.30
2019-05-20T13:11:28.670Z,18.43
2019-05-20T13:13:59.188Z,17.83
2019-05-20T13:16:29.199Z,18.37
2019-05-20T13:18:59.706Z,18.37
2019-05-20T13:21:29.818Z,14.27
2019-05-20T13:23:59.589Z,15.43
2019-05-20T13:26:29.633Z,16.50
2019-05-20T13:29:00.015Z,14.60
2019-05-20T13:31:30.273Z,12.17
2019-05-20T13:34:00.320Z,11.00
2019-05-20T13:36:30.498Z,11.07
2019-05-20T13:39:00.306Z,10.30
2019-05-20T13:41:30.358Z,11.13
2019-05-20T13:44:01.946Z,9.23
2019-05-20T13:46:31.758Z,9.23
2019-05-20T13:49:01.771Z,8.73
2019-05-20T13:51:32.038Z,7.43
2019-05-20T13:54:01.790Z,9.13
2019-05-20T13:56:31.588Z,7.87
2019-05-20T13:59:01.927Z,8.93
2019-05-20T14:01:32.351Z,10.47
2019-05-20T14:04:02.146Z,10.40
2019-05-20T14:06:32.360Z,11.33
2019-05-20T14:09:07.277Z,10.50
2019-05-20T14:11:35.869Z,11.57
2019-05-20T14:14:05.626Z,9.83
2019-05-20T14:16:35.458Z,12.00
2019-05-20T14:19:06.816Z,11.33
2019-05-20T14:21:37.613Z,11.60
2019-05-20T14:24:07.877Z,11.50
2019-05-20T14:26:37.783Z,11.00
2019-05-20T14:29:07.947Z,12.00
2019-05-20T14:31:37.716Z,11.63
2019-05-20T14:34:08.783Z,10.30
2019-05-20T14:36:40.346Z,11.63
2019-05-20T14:39:10.546Z,10.80
2019-05-20T14:41:40.359Z,13.00
2019-05-20T14:44:11.542Z,11.67
2019-05-20T14:46:41.786Z,11.07
2019-05-20T14:49:11.939Z,11.53
2019-05-20T14:51:42.392Z,11.80
2019-05-20T14:54:12.175Z,11.13
2019-05-20T14:56:42.699Z,10.13
2019-05-20T14:59:12.886Z,11.30
2019-05-20T15:01:43.687Z,11.20
2019-05-20T15:04:13.422Z,10.67
2019-05-20T15:06:43.973Z,10.20
2019-05-20T15:09:13.747Z,11.50
2019-05-20T15:11:43.845Z,9.93
2019-05-20T15:14:13.928Z,10.37
2019-05-20T15:16:43.805Z,10.13
2019-05-20T15:19:13.933Z,9.50
2019-05-20T15:21:44.164Z,8.53
2019-05-20T15:24:14.755Z,8.93
2019-05-20T15:26:48.099Z,8.63
2019-05-20T15:29:27.655Z,8.70
2019-05-20T15:31:50.242Z,10.20
2019-05-20T15:34:20.067Z,9.10
2019-05-20T15:36:50.634Z,10.33
2019-05-20T15:39:20.479Z,10.27
2019-05-20T15:42:09.281Z,11.13
2019-05-20T15:44:40.607Z,11.97
2019-05-20T15:47:10.556Z,11.57
2019-05-20T15:49:40.571Z,11.63
2019-05-20T15:52:10.771Z,12.60
2019-05-20T15:54:40.587Z,13.37
2019-05-20T15:57:11.607Z,13.20
2019-05-20T15:59:46.207Z,14.60
2019-05-20T16:02:14.285Z,12.10
2019-05-20T16:04:44.935Z,10.57
2019-05-20T16:07:15.145Z,10.30
2019-05-20T16:09:45.088Z,11.40
2019-05-20T16:12:18.553Z,10.63
2019-05-20T16:14:54.313Z,11.37
2019-05-20T16:17:24.688Z,11.00
2019-05-20T16:19:54.541Z,11.03
2019-05-20T16:22:25.758Z,12.10
2019-05-20T16:24:56.150Z,11.90
2019-05-20T16:27:26.718Z,9.93
2019-05-20T16:30:06.254Z,10.57
2019-05-20T16:32:28.488Z,10.83
2019-05-20T16:34:58.350Z,9.57
2019-05-20T16:37:28.226Z,10.17
2019-05-20T16:39:58.121Z,10.97
2019-05-20T16:42:27.991Z,10.70
2019-05-20T16:44:58.710Z,11.23
2019-05-20T16:47:28.462Z,13.10
2019-05-20T16:49:59.667Z,12.90
2019-05-20T16:52:29.532Z,12.80
2019-05-20T16:54:59.671Z,13.93
2019-05-20T16:57:29.508Z,14.17
2019-05-20T16:59:59.562Z,13.53
2019-05-20T17:02:30.095Z,12.80
2019-05-20T17:05:00.038Z,14.03
2019-05-20T17:07:31.309Z,14.00
2019-05-20T17:10:01.749Z,15.00
2019-05-20T17:12:31.561Z,16.93
2019-05-20T17:15:01.765Z,15.60
2019-05-20T17:17:32.115Z,15.57
2019-05-20T17:20:02.411Z,13.40
2019-05-20T17:22:32.572Z,13.43
2019-05-20T17:25:03.213Z,14.87
2019-05-20T17:27:34.155Z,16.30
2019-05-20T17:30:06.443Z,14.00
2019-05-20T17:32:36.722Z,15.90
2019-05-20T17:35:07.171Z,15.70
2019-05-20T17:37:38.877Z,15.73
2019-05-20T17:40:11.312Z,16.67
2019-05-20T17:42:41.295Z,17.87
2019-05-20T17:45:12.055Z,18.47
2019-05-20T17:47:42.162Z,18.03
2019-05-20T17:50:13.058Z,20.07
2019-05-20T17:52:48.244Z,23.17
2019-05-20T17:55:18.678Z,22.60
2019-05-20T17:57:49.060Z,21.90
2019-05-20T18:00:20.968Z,22.63
2019-05-20T18:02:51.061Z,23.50
2019-05-20T18:05:21.420Z,23.73
2019-05-20T18:07:51.269Z,23.10
2019-05-20T18:10:24.380Z,22.80
2019-05-20T18:12:55.148Z,24.27
2019-05-20T18:15:25.631Z,24.70
2019-05-20T18:17:55.887Z,22.43
2019-05-20T18:20:25.853Z,26.33
2019-05-20T18:22:56.282Z,23.47
2019-05-20T18:25:27.411Z,22.03
2019-05-20T18:27:57.579Z,24.03
2019-05-20T18:30:27.778Z,25.10
2019-05-20T18:32:57.689Z,24.50
2019-05-20T18:35:27.849Z,24.60
2019-05-20T18:37:58.170Z,26.57
2019-05-20T18:40:28.398Z,25.73
2019-05-20T18:42:58.225Z,26.17
2019-05-20T18:45:28.004Z,26.57
2019-05-20T18:47:58.253Z,26.37
2019-05-20T18:50:29.519Z,26.40
2019-05-20T18:52:59.318Z,26.07
2019-05-20T18:55:29.886Z,28.30
2019-05-20T18:58:00.222Z,26.87
2019-05-20T19:00:30.009Z,27.37
2019-05-20T19:03:00.136Z,25.37
2019-05-20T19:05:30.737Z,24.87
2019-05-20T19:08:01.014Z,26.97
2019-05-20T19:10:31.623Z,22.17
2019-05-20T19:13:01.897Z,24.67
2019-05-20T19:15:33.062Z,24.07
2019-05-20T19:18:03.320Z,26.53
2019-05-20T19:20:33.773Z,24.40
2019-05-20T19:23:03.644Z,24.83
2019-05-20T19:25:37.714Z,25.67
2019-05-20T19:28:05.411Z,25.90
2019-05-20T19:30:36.094Z,24.83
2019-05-20T19:33:07.138Z,23.17
2019-05-20T19:35:36.974Z,23.20
2019-05-20T19:38:07.512Z,25.07
2019-05-20T19:40:37.498Z,25.13
2019-05-20T19:43:07.359Z,23.53
2019-05-20T19:45:37.440Z,23.17
2019-05-20T19:48:08.138Z,24.00
2019-05-20T19:50:38.158Z,22.57
2019-05-20T19:53:08.240Z,19.63
2019-05-20T19:55:39.236Z,19.83
2019-05-20T19:58:09.149Z,21.30
2019-05-20T20:00:39.122Z,17.40
2019-05-20T20:03:09.250Z,18.10
2019-05-20T20:05:40.077Z,19.20
2019-05-20T20:08:10.346Z,16.00
2019-05-20T20:10:41.314Z,17.50
2019-05-20T20:13:11.605Z,16.63
2019-05-20T20:15:42.930Z,15.23
2019-05-20T20:18:13.572Z,15.50
2019-05-20T20:20:45.169Z,16.10
2019-05-20T20:23:16.681Z,16.70
2019-05-20T20:25:47.284Z,14.23
2019-05-20T20:28:18.543Z,16.80
2019-05-20T20:30:52.299Z,15.17
2019-05-20T20:33:23.350Z,15.60
2019-05-20T20:35:53.774Z,16.20
2019-05-20T20:38:24.794Z,14.47
2019-05-20T20:40:55.938Z,13.40
2019-05-20T20:43:32.246Z,12.13
2019-05-20T20:46:03.147Z,11.30
2019-05-20T20:48:34.260Z,10.13
2019-05-20T20:51:05.164Z,10.00
2019-05-20T20:53:36.586Z,10.07
2019-05-20T20:56:22.737Z,9.97
2019-05-20T20:58:41.579Z,11.73
2019-05-20T21:01:12.574Z,11.47
2019-05-20T21:03:43.539Z,11.90
2019-05-20T21:06:14.418Z,10.30
2019-05-20T21:08:44.700Z,9.70
2019-05-20T21:11:15.320Z,8.53
2019-05-20T21:13:46.403Z,9.27
2019-05-20T21:16:16.870Z,9.10
2019-05-20T21:18:47.760Z,9.37
2019-05-20T21:21:18.927Z,9.40
2019-05-20T21:23:49.343Z,9.63
2019-05-20T21:26:20.494Z,10.10
2019-05-20T21:28:51.542Z,10.17
2019-05-20T21:31:21.973Z,10.63
2019-05-20T21:33:53.185Z,11.83
2019-05-20T21:36:24.717Z,10.97
2019-05-20T21:38:54.924Z,11.87
2019-05-20T21:41:25.118Z,10.40
2019-05-20T21:43:55.890Z,12.90
2019-05-20T21:46:26.079Z,13.33
2019-05-20T21:48:56.147Z,14.23
2019-05-20T21:51:26.364Z,13.70
2019-05-20T21:53:56.231Z,15.37
2019-05-20T21:56:26.401Z,15.27
2019-05-20T21:58:59.866Z,14.67
2019-05-20T22:01:31.082Z,14.50
2019-05-20T22:04:01.680Z,13.97
2019-05-20T22:06:31.758Z,12.90
2019-05-20T22:09:01.556Z,12.90
2019-05-20T22:11:31.365Z,13.60
2019-05-20T22:14:01.650Z,12.43
2019-05-20T22:16:31.526Z,11.47
2019-05-20T22:19:02.441Z,12.60
2019-05-20T22:21:38.190Z,12.40
2019-05-20T22:24:08.450Z,11.60
2019-05-20T22:26:38.562Z,12.30
2019-05-20T22:29:08.320Z,9.97
2019-05-20T22:31:38.139Z,10.97
2019-05-20T22:34:07.904Z,10.33
2019-05-20T22:36:37.710Z,10.53
2019-05-20T22:39:08.451Z,11.23
2019-05-20T22:41:38.654Z,11.23
2019-05-20T22:44:08.903Z,10.37
2019-05-20T22:46:39.273Z,10.27
2019-05-20T22:49:10.122Z,11.30
2019-05-20T22:51:40.384Z,11.97
2019-05-20T22:54:10.597Z,13.23
2019-05-20T22:56:41.154Z,13.53
2019-05-20T22:59:11.487Z,16.63
2019-05-20T23:01:43.285Z,13.57
2019-05-20T23:04:13.425Z,15.73
2019-05-20T23:06:43.682Z,14.03
2019-05-20T23:09:14.956Z,14.77
2019-05-20T23:11:45.234Z,14.37
2019-05-20T23:14:15.165Z,11.77
2019-05-20T23:16:45.080Z,9.60
2019-05-20T23:19:14.918Z,8.70
2019-05-20T23:21:45.059Z,8.60
2019-05-20T23:24:14.862Z,6.13
2019-05-20T23:26:44.681Z,7.13
2019-05-20T23:29:14.801Z,6.50
2019-05-20T23:31:45.080Z,7.40
2019-05-20T23:34:14.995Z,8.23
2019-05-20T23:36:45.095Z,10.60
2019-05-20T23:39:14.945Z,10.30
2019-05-20T23:41:45.110Z,13.60
2019-05-20T23:44:15.047Z,15.20
2019-05-20T23:46:44.858Z,14.40
2019-05-20T23:49:14.618Z,15.20
2019-05-20T23:51:44.874Z,14.70
2019-05-20T23:54:14.637Z,14.13
2019-05-20T23:56:44.466Z,13.47
2019-05-20T23:59:14.218Z,12.70
